createdAt,value
2019-02-10T00:01:28.119Z,2.50
2019-02-10T00:03:57.499Z,2.50
2019-02-10T00:06:26.819Z,2.50
2019-02-10T00:08:57.046Z,2.50
2019-02-10T00:11:26.529Z,2.50
2019-02-10T00:13:55.899Z,2.50
2019-02-10T00:16:25.290Z,2.60
2019-02-10T00:18:54.592Z,2.50
2019-02-10T00:21:23.904Z,2.50
2019-02-10T00:23:53.226Z,2.20
2019-02-10T00:26:22.513Z,2.30
2019-02-10T00:28:51.820Z,2.30
2019-02-10T00:31:21.162Z,2.30
2019-02-10T00:33:50.460Z,2.40
2019-02-10T00:36:19.836Z,2.40
2019-02-10T00:38:49.155Z,2.50
2019-02-10T00:41:18.442Z,2.40
2019-02-10T00:43:47.739Z,2.50
2019-02-10T00:46:17.064Z,2.40
2019-02-10T00:48:46.375Z,2.30
2019-02-10T00:51:15.677Z,2.40
2019-02-10T00:53:44.986Z,2.40
2019-02-10T00:56:14.299Z,2.30
2019-02-10T00:58:44.680Z,2.20
2019-02-10T01:01:13.978Z,2.20
2019-02-10T01:03:43.280Z,2.20
2019-02-10T01:06:12.585Z,2.20
2019-02-10T01:08:41.916Z,2.20
2019-02-10T01:11:11.230Z,2.10
2019-02-10T01:13:40.608Z,2.20
2019-02-10T01:16:09.925Z,2.10
2019-02-10T01:18:39.601Z,2.00
2019-02-10T01:21:08.911Z,2.10
2019-02-10T01:23:38.236Z,2.10
2019-02-10T01:26:07.537Z,2.10
2019-02-10T01:28:36.839Z,2.00
2019-02-10T01:31:06.165Z,2.10
2019-02-10T01:33:35.461Z,2.20
2019-02-10T01:36:04.754Z,2.10
2019-02-10T01:38:34.083Z,2.00
2019-02-10T01:41:03.747Z,2.00
2019-02-10T01:43:33.130Z,1.90
2019-02-10T01:46:02.412Z,2.00
2019-02-10T01:48:31.716Z,2.00
2019-02-10T01:51:01.022Z,2.00
2019-02-10T01:53:30.344Z,1.90
2019-02-10T01:55:59.637Z,1.80
2019-02-10T01:58:28.953Z,1.80
2019-02-10T02:00:58.281Z,1.70
2019-02-10T02:03:27.712Z,1.70
2019-02-10T02:05:56.965Z,1.70
2019-02-10T02:08:26.277Z,1.70
2019-02-10T02:10:55.581Z,1.70
2019-02-10T02:13:24.877Z,1.70
2019-02-10T02:15:54.190Z,1.70
2019-02-10T02:18:23.493Z,1.70
2019-02-10T02:20:52.793Z,1.80
2019-02-10T02:23:22.120Z,1.80
2019-02-10T02:25:51.406Z,1.80
2019-02-10T02:28:20.704Z,1.80
2019-02-10T02:30:50.030Z,1.60
2019-02-10T02:33:20.205Z,1.60
2019-02-10T02:35:49.518Z,1.50
2019-02-10T02:38:18.818Z,1.40
2019-02-10T02:40:48.109Z,1.50
2019-02-10T02:43:17.415Z,1.50
2019-02-10T02:45:46.737Z,1.50
2019-02-10T02:48:16.034Z,1.50
2019-02-10T02:50:45.337Z,1.50
2019-02-10T02:53:14.669Z,1.40
2019-02-10T02:55:43.958Z,1.50
2019-02-10T02:58:13.268Z,1.60
2019-02-10T03:00:42.585Z,1.70
2019-02-10T03:03:11.945Z,1.50
2019-02-10T03:05:41.237Z,1.50
2019-02-10T03:08:10.560Z,1.50
2019-02-10T03:10:39.844Z,1.40
2019-02-10T03:13:09.162Z,1.40
2019-02-10T03:15:38.487Z,1.30
2019-02-10T03:18:07.799Z,1.10
2019-02-10T03:20:37.109Z,1.20
2019-02-10T03:23:06.431Z,1.10
2019-02-10T03:25:35.739Z,1.10
2019-02-10T03:28:05.085Z,1.10
2019-02-10T03:30:34.363Z,1.10
2019-02-10T03:33:03.691Z,1.10
2019-02-10T03:35:32.973Z,1.10
2019-02-10T03:38:02.287Z,1.00
2019-02-10T03:40:31.595Z,1.00
2019-02-10T03:43:00.914Z,1.10
2019-02-10T03:45:30.218Z,1.20
2019-02-10T03:47:59.510Z,1.30
2019-02-10T03:50:28.822Z,1.30
2019-02-10T03:52:58.124Z,1.30
2019-02-10T03:55:27.430Z,1.30
2019-02-10T03:57:56.745Z,1.20
2019-02-10T04:00:26.057Z,1.10
2019-02-10T04:02:55.355Z,1.10
2019-02-10T04:05:24.652Z,1.10
2019-02-10T04:07:53.963Z,1.10
2019-02-10T04:10:23.265Z,1.20
2019-02-10T04:12:52.578Z,1.10
2019-02-10T04:15:21.900Z,1.10
2019-02-10T04:17:51.188Z,1.10
2019-02-10T04:20:20.520Z,1.10
2019-02-10T04:22:49.847Z,1.10
2019-02-10T04:25:19.144Z,1.20
2019-02-10T04:27:48.441Z,1.20
2019-02-10T04:30:17.774Z,1.20
2019-02-10T04:32:47.052Z,1.20
2019-02-10T04:35:16.355Z,1.30
2019-02-10T04:37:46.575Z,1.20
2019-02-10T04:40:17.150Z,1.20
2019-02-10T04:42:46.437Z,1.20
2019-02-10T04:45:15.755Z,1.20
2019-02-10T04:47:45.044Z,1.20
2019-02-10T04:50:14.342Z,1.20
2019-02-10T04:52:43.651Z,1.40
2019-02-10T04:55:12.952Z,1.30
2019-02-10T04:57:42.270Z,1.30
2019-02-10T05:00:11.573Z,1.30
2019-02-10T05:02:40.910Z,1.20
2019-02-10T05:05:10.226Z,1.40
2019-02-10T05:07:39.551Z,1.50
2019-02-10T05:10:08.842Z,1.50
2019-02-10T05:12:38.147Z,1.60
2019-02-10T05:15:07.930Z,1.60
2019-02-10T05:17:37.233Z,1.70
2019-02-10T05:20:08.086Z,1.70
2019-02-10T05:22:39.285Z,1.60
2019-02-10T05:25:08.332Z,1.60
2019-02-10T05:27:37.617Z,1.70
2019-02-10T05:30:06.941Z,1.80
2019-02-10T05:32:36.237Z,1.80
2019-02-10T05:35:06.677Z,1.90
2019-02-10T05:37:36.002Z,2.00
2019-02-10T05:40:05.752Z,2.00
2019-02-10T05:42:35.068Z,1.90
2019-02-10T05:45:06.216Z,2.00
2019-02-10T05:47:35.509Z,2.00
2019-02-10T05:50:07.147Z,2.00
2019-02-10T05:52:36.403Z,2.10
2019-02-10T05:55:05.696Z,2.20
2019-02-10T05:57:35.017Z,2.10
2019-02-10T06:00:04.648Z,2.10
2019-02-10T06:02:33.945Z,2.10
2019-02-10T06:05:05.817Z,2.10
2019-02-10T06:07:35.096Z,2.20
2019-02-10T06:10:05.949Z,2.10
2019-02-10T06:12:35.272Z,2.20
2019-02-10T06:15:06.487Z,2.30
2019-02-10T06:17:35.865Z,2.30
2019-02-10T06:20:10.098Z,2.20
2019-02-10T06:22:39.440Z,2.30
2019-02-10T06:25:09.102Z,2.40
2019-02-10T06:27:38.389Z,2.40
2019-02-10T06:30:09.762Z,2.40
2019-02-10T06:32:39.059Z,2.40
2019-02-10T06:35:09.404Z,2.50
2019-02-10T06:37:38.715Z,2.50
2019-02-10T06:40:09.144Z,2.60
2019-02-10T06:42:38.437Z,2.60
2019-02-10T06:45:10.314Z,2.70
2019-02-10T06:47:39.621Z,2.60
2019-02-10T06:50:08.978Z,2.70
2019-02-10T06:52:38.301Z,2.80
2019-02-10T06:55:09.129Z,2.70
2019-02-10T06:57:38.447Z,2.70
2019-02-10T07:00:17.936Z,2.70
2019-02-10T07:03:24.893Z,2.70
2019-02-10T07:05:54.225Z,2.80
2019-02-10T07:08:30.448Z,2.80
2019-02-10T07:10:54.458Z,2.90
2019-02-10T07:13:35.820Z,2.80
2019-02-10T07:16:27.197Z,2.80
2019-02-10T07:19:33.195Z,2.90
2019-02-10T07:22:22.239Z,2.90
2019-02-10T07:24:57.447Z,2.80
2019-02-10T07:27:27.694Z,2.90
2019-02-10T07:30:06.281Z,3.00
2019-02-10T07:32:56.408Z,2.90
2019-02-10T07:35:40.898Z,3.00
2019-02-10T07:38:30.056Z,3.00
2019-02-10T07:41:11.682Z,3.00
2019-02-10T07:44:13.125Z,3.10
2019-02-10T07:47:00.692Z,3.10
2019-02-10T07:49:44.947Z,3.10
2019-02-10T07:52:36.969Z,3.10
2019-02-10T08:20:21.192Z,25.60
2019-02-10T08:23:01.379Z,14.30
2019-02-10T08:25:51.803Z,8.10
2019-02-10T08:28:24.384Z,5.80
2019-02-10T08:31:14.756Z,4.90
2019-02-10T08:33:52.989Z,4.50
2019-02-10T08:36:28.094Z,4.20
2019-02-10T08:39:19.549Z,4.20
2019-02-10T08:41:54.559Z,4.10
2019-02-10T08:44:30.541Z,4.00
2019-02-10T08:47:08.621Z,3.80
2019-02-10T08:50:01.003Z,3.60
2019-02-10T08:52:52.133Z,3.60
2019-02-10T08:55:22.858Z,3.60
2019-02-10T08:57:52.479Z,3.70
2019-02-10T09:00:35.074Z,3.80
2019-02-10T09:03:04.592Z,3.80
2019-02-10T09:05:35.185Z,3.80
2019-02-10T09:08:11.823Z,3.70
2019-02-10T09:10:41.193Z,3.80
2019-02-10T09:13:10.510Z,3.90
2019-02-10T09:15:39.837Z,3.90
2019-02-10T09:18:09.378Z,3.80
2019-02-10T09:20:38.701Z,3.80
2019-02-10T09:23:08.035Z,5.70
2019-02-10T09:25:37.354Z,5.00
2019-02-10T09:28:06.653Z,4.40
2019-02-10T09:30:35.975Z,4.20
2019-02-10T09:33:05.850Z,4.30
2019-02-10T09:35:35.174Z,4.20
2019-02-10T09:38:04.585Z,4.10
2019-02-10T09:40:34.015Z,4.10
2019-02-10T09:43:03.315Z,4.20
2019-02-10T09:45:33.955Z,4.20
2019-02-10T09:48:03.330Z,4.30
2019-02-10T09:50:32.691Z,4.30
2019-02-10T09:53:02.009Z,4.40
2019-02-10T09:55:31.322Z,4.40
2019-02-10T09:58:00.653Z,4.30
2019-02-10T10:00:30.015Z,4.30
2019-02-10T10:03:01.900Z,4.30
2019-02-10T10:05:31.235Z,4.30
2019-02-10T10:08:00.541Z,4.20
2019-02-10T10:10:29.872Z,4.30
2019-02-10T10:12:59.218Z,4.30
2019-02-10T10:15:28.535Z,4.40
2019-02-10T10:17:57.862Z,4.50
2019-02-10T10:20:27.239Z,4.40
2019-02-10T10:22:56.552Z,4.30
2019-02-10T10:25:25.946Z,4.40
2019-02-10T10:27:55.300Z,4.40
2019-02-10T10:30:24.638Z,4.50
2019-02-10T10:32:53.954Z,4.60
2019-02-10T10:35:25.041Z,4.80
2019-02-10T10:37:54.431Z,4.90
2019-02-10T10:40:23.741Z,5.00
2019-02-10T10:42:53.117Z,4.90
2019-02-10T10:45:23.494Z,4.90
2019-02-10T10:47:54.301Z,4.80
2019-02-10T10:50:23.608Z,4.70
2019-02-10T10:52:52.925Z,4.70
2019-02-10T10:55:22.327Z,4.60
2019-02-10T10:57:56.355Z,4.60
2019-02-10T11:00:25.787Z,4.80
2019-02-10T11:05:51.182Z,5.00
2019-02-10T11:08:20.498Z,5.00
2019-02-10T11:10:49.810Z,5.20
2019-02-10T11:13:19.213Z,5.40
2019-02-10T11:15:48.586Z,5.50
2019-02-10T11:18:17.973Z,5.50
2019-02-10T11:20:47.306Z,5.70
2019-02-10T11:23:16.778Z,6.00
2019-02-10T11:25:46.093Z,5.90
2019-02-10T11:28:15.572Z,5.90
2019-02-10T11:30:44.902Z,6.00
2019-02-10T11:33:14.389Z,6.00
2019-02-10T11:35:43.720Z,6.00
2019-02-10T11:38:13.026Z,5.90
2019-02-10T11:40:42.329Z,6.10
2019-02-10T11:43:11.675Z,6.10
2019-02-10T11:45:41.031Z,6.00
2019-02-10T11:48:10.384Z,5.90
2019-02-10T11:50:39.695Z,5.90
2019-02-10T11:53:09.011Z,6.10
2019-02-10T11:55:38.315Z,6.10
2019-02-10T11:58:07.711Z,6.30
2019-02-10T12:00:37.007Z,6.40
2019-02-10T12:03:06.339Z,6.30
2019-02-10T12:05:35.659Z,6.30
2019-02-10T12:08:05.050Z,6.10
2019-02-10T12:10:34.373Z,6.10
2019-02-10T12:13:03.699Z,6.10
2019-02-10T12:15:32.988Z,6.10
2019-02-10T12:18:02.328Z,6.00
2019-02-10T12:20:31.667Z,6.00
2019-02-10T12:23:00.985Z,5.80
2019-02-10T12:25:30.297Z,5.70
2019-02-10T12:27:59.633Z,5.80
2019-02-10T12:30:28.963Z,5.70
2019-02-10T12:32:58.282Z,5.60
2019-02-10T12:35:27.635Z,5.60
2019-02-10T12:37:56.905Z,5.50
2019-02-10T12:40:26.210Z,5.50
2019-02-10T12:42:55.533Z,5.60
2019-02-10T12:45:24.843Z,5.70
2019-02-10T12:47:54.159Z,5.80
2019-02-10T12:50:23.514Z,6.00
2019-02-10T12:52:52.926Z,6.10
2019-02-10T12:55:23.842Z,6.10
2019-02-10T12:57:53.168Z,6.00
2019-02-10T13:00:22.473Z,5.90
2019-02-10T13:02:51.782Z,5.90
2019-02-10T13:05:21.136Z,5.90
2019-02-10T13:07:50.420Z,5.80
2019-02-10T13:10:19.744Z,5.80
2019-02-10T13:12:49.079Z,5.80
2019-02-10T13:15:18.366Z,5.80
2019-02-10T13:17:47.686Z,5.80
2019-02-10T13:20:17.143Z,5.80
2019-02-10T13:22:46.541Z,5.80
2019-02-10T13:25:15.875Z,5.60
2019-02-10T13:27:45.261Z,5.60
2019-02-10T13:30:18.732Z,5.70
2019-02-10T13:32:48.073Z,5.80
2019-02-10T13:35:17.377Z,5.80
2019-02-10T13:37:46.683Z,5.70
2019-02-10T13:40:18.277Z,5.70
2019-02-10T13:42:47.580Z,5.60
2019-02-10T13:45:16.908Z,5.60
2019-02-10T13:47:46.275Z,5.60
2019-02-10T13:50:20.253Z,5.70
2019-02-10T13:52:49.595Z,5.60
2019-02-10T13:55:18.937Z,5.60
2019-02-10T13:57:48.282Z,5.60
2019-02-10T14:00:20.331Z,5.50
2019-02-10T14:02:49.664Z,5.50
2019-02-10T14:05:18.966Z,5.50
2019-02-10T14:07:50.696Z,5.50
2019-02-10T14:10:25.705Z,5.50
2019-02-10T14:12:51.958Z,5.50
2019-02-10T14:15:21.261Z,5.70
2019-02-10T14:17:50.578Z,5.70
2019-02-10T14:20:20.356Z,5.60
2019-02-10T14:22:49.678Z,5.60
2019-02-10T14:25:18.981Z,5.60
2019-02-10T14:27:48.324Z,5.60
2019-02-10T14:30:19.860Z,5.60
2019-02-10T14:32:49.158Z,5.70
2019-02-10T14:35:18.503Z,5.70
2019-02-10T14:37:47.820Z,5.70
2019-02-10T14:40:17.132Z,5.80
2019-02-10T14:42:46.534Z,5.90
2019-02-10T14:45:16.425Z,6.10
2019-02-10T14:47:45.711Z,6.10
2019-02-10T14:50:18.628Z,6.20
2019-02-10T14:52:48.882Z,6.20
2019-02-10T14:55:18.187Z,6.20
2019-02-10T14:57:47.508Z,6.30
2019-02-10T15:00:17.153Z,6.30
2019-02-10T15:02:46.448Z,6.40
2019-02-10T15:05:15.782Z,6.40
2019-02-10T15:07:45.094Z,6.50
2019-02-10T15:10:19.324Z,6.50
2019-02-10T15:12:47.950Z,6.50
2019-02-10T15:15:17.186Z,6.50
2019-02-10T15:17:46.585Z,6.50
2019-02-10T15:20:15.876Z,6.40
2019-02-10T15:22:45.196Z,6.70
2019-02-10T15:25:14.897Z,6.60
2019-02-10T15:27:44.219Z,6.70
2019-02-10T15:30:15.944Z,6.70
2019-02-10T15:32:45.310Z,6.70
2019-02-10T15:35:14.769Z,6.70
2019-02-10T15:37:44.189Z,6.80
2019-02-10T15:40:13.873Z,6.70
2019-02-10T15:42:43.321Z,6.60
2019-02-10T15:45:13.692Z,6.60
2019-02-10T15:47:43.431Z,6.60
2019-02-10T15:50:15.538Z,6.60
2019-02-10T15:52:44.823Z,6.60
2019-02-10T15:55:14.509Z,6.60
2019-02-10T15:57:43.903Z,6.60
2019-02-10T16:00:29.694Z,6.60
2019-02-10T16:02:59.087Z,6.60
2019-02-10T16:05:28.401Z,6.60
2019-02-10T16:07:57.713Z,6.60
2019-02-10T16:10:27.035Z,6.60
2019-02-10T16:12:56.345Z,6.70
2019-02-10T16:15:25.661Z,6.70
2019-02-10T16:17:54.990Z,6.60
2019-02-10T16:20:25.366Z,6.60
2019-02-10T16:22:54.681Z,6.60
2019-02-10T16:25:30.814Z,6.60
2019-02-10T16:28:12.133Z,7.70
2019-02-10T16:30:43.157Z,7.20
2019-02-10T17:22:42.126Z,6.40
2019-02-10T17:28:35.955Z,6.40
2019-02-10T17:34:30.772Z,6.50
2019-02-10T17:43:02.940Z,6.50
2019-02-10T17:45:48.228Z,6.60
2019-02-10T17:48:40.603Z,6.50
2019-02-10T17:51:10.996Z,6.50
2019-02-10T17:53:49.200Z,6.50
2019-02-10T17:56:26.753Z,6.50
2019-02-10T17:58:56.146Z,6.40
2019-02-10T18:01:25.485Z,6.40
2019-02-10T18:03:56.368Z,6.40
2019-02-10T18:06:26.239Z,6.30
2019-02-10T18:08:55.637Z,6.30
2019-02-10T18:11:30.857Z,6.10
2019-02-10T18:13:55.990Z,6.40
2019-02-10T18:16:41.940Z,6.60
2019-02-10T18:19:12.963Z,6.60
2019-02-10T18:21:46.706Z,6.60
2019-02-10T18:24:29.740Z,6.60
2019-02-10T18:27:00.899Z,6.70
2019-02-10T18:29:43.822Z,6.70
2019-02-10T18:32:26.748Z,6.70
2019-02-10T18:35:03.911Z,6.70
2019-02-10T18:37:50.231Z,6.70
2019-02-10T18:40:21.265Z,6.90
2019-02-10T18:43:08.659Z,6.90
2019-02-10T18:45:54.557Z,6.80
2019-02-10T18:48:42.028Z,6.70
2019-02-10T18:51:28.132Z,6.70
2019-02-10T18:53:59.045Z,6.60
2019-02-10T18:56:32.809Z,6.60
2019-02-10T18:59:16.027Z,6.50
2019-02-10T19:01:47.714Z,6.50
2019-02-10T19:04:18.703Z,6.50
2019-02-10T19:06:52.076Z,6.50
2019-02-10T19:09:23.082Z,6.60
2019-02-10T19:11:59.905Z,6.50
2019-02-10T19:14:33.587Z,6.70
2019-02-10T19:17:04.507Z,6.70
2019-02-10T19:19:44.541Z,6.80
2019-02-10T19:22:22.199Z,7.20
2019-02-10T19:24:56.109Z,7.90
2019-02-10T19:27:35.963Z,8.40
2019-02-10T19:30:10.635Z,8.90
2019-02-10T19:32:53.627Z,9.00
2019-02-10T19:35:33.176Z,8.90
2019-02-10T19:38:06.871Z,8.90
2019-02-10T19:40:55.948Z,8.80
2019-02-10T19:43:36.099Z,8.80
2019-02-10T19:46:07.101Z,8.70
2019-02-10T19:48:46.642Z,8.60
2019-02-10T19:51:29.558Z,8.50
2019-02-10T19:54:12.741Z,8.50
2019-02-10T19:56:52.825Z,8.30
2019-02-10T19:59:23.823Z,8.30
2019-02-10T20:02:00.712Z,8.10
2019-02-10T20:04:31.654Z,8.00
2019-02-10T20:07:11.514Z,8.00
2019-02-10T20:09:51.396Z,7.90
2019-02-10T20:12:31.200Z,7.90
2019-02-10T20:15:04.967Z,7.80
2019-02-10T20:17:35.959Z,7.90
2019-02-10T20:20:13.207Z,7.70
2019-02-10T20:22:46.877Z,7.70
2019-02-10T20:25:34.017Z,7.80
2019-02-10T20:28:05.083Z,7.80
2019-02-10T20:30:36.125Z,7.70
2019-02-10T20:33:16.167Z,7.60
2019-02-10T20:38:54.379Z,7.60
2019-02-10T20:41:32.203Z,7.70
2019-02-10T20:44:05.208Z,7.80
2019-02-10T20:50:03.927Z,7.90
2019-02-10T20:52:46.158Z,8.10
2019-02-10T20:55:13.363Z,8.10
2019-02-10T20:57:44.378Z,7.90
2019-02-10T21:00:15.796Z,7.80
2019-02-10T21:02:46.849Z,7.80
2019-02-10T21:05:33.693Z,7.80
2019-02-10T21:08:07.739Z,7.60
2019-02-10T21:10:56.747Z,7.60
2019-02-10T21:13:43.853Z,7.70
2019-02-10T21:16:17.696Z,7.60
2019-02-10T21:18:55.921Z,7.60
2019-02-10T21:21:43.118Z,7.60
2019-02-10T21:24:14.106Z,7.50
2019-02-10T21:26:51.128Z,7.50
2019-02-10T21:29:31.147Z,7.50
2019-02-10T21:32:04.925Z,7.50
2019-02-10T21:34:41.769Z,7.60
2019-02-10T21:37:16.384Z,7.70
2019-02-10T21:40:02.384Z,7.90
2019-02-10T21:42:39.203Z,7.90
2019-02-10T21:45:25.180Z,7.80
2019-02-10T21:48:05.119Z,7.60
2019-02-10T21:50:34.437Z,7.60
2019-02-10T21:53:03.764Z,7.70
2019-02-10T21:55:33.084Z,7.70
2019-02-10T21:58:02.406Z,7.60
2019-02-10T22:00:31.805Z,7.60
2019-02-10T22:03:01.227Z,7.60
2019-02-10T22:05:30.615Z,7.60
2019-02-10T22:07:59.928Z,7.70
2019-02-10T22:10:31.245Z,7.80
2019-02-10T22:13:00.983Z,7.70
2019-02-10T22:15:30.919Z,7.70
2019-02-10T22:18:02.853Z,7.70
2019-02-10T22:20:51.763Z,8.00
2019-02-10T22:23:22.363Z,7.90
2019-02-10T22:25:51.692Z,8.00
2019-02-10T22:28:21.536Z,8.00
2019-02-10T22:30:50.950Z,8.00
2019-02-10T22:33:21.205Z,8.00
2019-02-10T22:35:52.280Z,7.80
2019-02-10T22:38:22.004Z,7.90
2019-02-10T22:40:51.441Z,8.10
2019-02-10T22:43:22.688Z,8.00
2019-02-10T22:45:54.061Z,8.10
2019-02-10T22:48:23.618Z,8.00
2019-02-10T22:50:54.216Z,8.10
2019-02-10T22:56:27.833Z,7.90
2019-02-10T22:58:59.000Z,7.80
2019-02-10T23:04:26.897Z,7.70
2019-02-10T23:06:57.925Z,7.80
2019-02-10T23:09:29.610Z,7.70
2019-02-10T23:12:02.594Z,7.80
2019-02-10T23:14:35.333Z,7.90
2019-02-10T23:17:09.219Z,7.90
2019-02-10T23:19:41.018Z,7.80
2019-02-10T23:22:15.780Z,8.00
2019-02-10T23:24:48.244Z,8.00
2019-02-10T23:27:26.755Z,7.90
2019-02-10T23:30:01.271Z,8.20
2019-02-10T23:32:34.272Z,8.50
2019-02-10T23:35:09.155Z,9.10
2019-02-10T23:37:40.357Z,9.20
2019-02-10T23:40:09.854Z,9.30
2019-02-10T23:42:39.291Z,9.40
2019-02-10T23:45:10.915Z,9.60
2019-02-10T23:47:41.329Z,9.60
2019-02-10T23:50:11.241Z,9.70
2019-02-10T23:52:40.562Z,9.80
2019-02-10T23:55:09.898Z,9.90
2019-02-10T23:57:39.270Z,9.90
